createdAt,value
2022-08-02T00:00:21.924Z,99.99
2022-08-02T00:01:21.949Z,99.99
2022-08-02T00:02:21.906Z,99.99
2022-08-02T00:03:21.901Z,99.99
2022-08-02T00:04:21.879Z,99.99
2022-08-02T00:05:21.874Z,99.99
2022-08-02T00:06:21.860Z,99.99
2022-08-02T00:07:21.864Z,99.99
2022-08-02T00:08:21.832Z,99.99
2022-08-02T00:09:21.840Z,99.99
2022-08-02T00:10:21.816Z,99.99
2022-08-02T00:11:21.833Z,99.99
2022-08-02T00:12:21.791Z,99.99
2022-08-02T00:13:21.791Z,99.99
2022-08-02T00:14:21.771Z,99.99
2022-08-02T00:15:21.769Z,99.99
2022-08-02T00:16:21.752Z,99.99
2022-08-02T00:17:22.778Z,99.99
2022-08-02T00:18:21.734Z,99.99
2022-08-02T00:19:21.723Z,99.99
2022-08-02T00:20:21.705Z,99.99
2022-08-02T00:21:21.703Z,99.99
2022-08-02T00:22:21.687Z,99.99
2022-08-02T00:23:21.675Z,99.99
2022-08-02T00:24:29.868Z,99.99
2022-08-02T00:25:22.667Z,99.99
2022-08-02T00:26:21.645Z,99.99
2022-08-02T00:27:21.636Z,99.99
2022-08-02T00:28:23.470Z,99.99
2022-08-02T00:29:22.614Z,99.99
2022-08-02T00:30:21.602Z,99.99
2022-08-02T00:31:21.598Z,99.99
2022-08-02T00:32:21.673Z,99.99
2022-08-02T00:34:27.488Z,99.99
2022-08-02T00:34:30.371Z,99.99
2022-08-02T00:35:22.555Z,99.99
2022-08-02T00:36:21.540Z,99.99
2022-08-02T00:37:21.666Z,99.99
2022-08-02T00:38:21.527Z,99.99
2022-08-02T00:39:35.231Z,99.99
2022-08-02T00:40:22.490Z,99.99
2022-08-02T00:41:21.691Z,99.99
2022-08-02T00:42:21.482Z,99.99
2022-08-02T00:43:21.470Z,99.99
2022-08-02T00:44:21.453Z,99.99
2022-08-02T00:45:21.441Z,99.99
2022-08-02T00:46:22.632Z,99.99
2022-08-02T00:47:21.430Z,99.99
2022-08-02T00:48:21.401Z,99.99
2022-08-02T00:49:21.559Z,99.99
2022-08-02T00:50:21.384Z,99.99
2022-08-02T00:51:21.376Z,99.99
2022-08-02T00:52:21.363Z,99.99
2022-08-02T00:53:21.365Z,99.99
2022-08-02T00:54:21.352Z,99.99
2022-08-02T00:55:23.577Z,99.99
2022-08-02T00:56:22.317Z,99.99
2022-08-02T00:57:21.327Z,99.99
2022-08-02T00:58:21.314Z,99.99
2022-08-02T00:59:21.296Z,99.99
2022-08-02T01:00:21.277Z,99.99
2022-08-02T01:01:21.331Z,99.99
2022-08-02T01:02:21.411Z,99.99
2022-08-02T01:03:21.251Z,99.99
2022-08-02T01:04:26.747Z,99.99
2022-08-02T01:05:22.226Z,99.99
2022-08-02T01:06:21.210Z,99.99
2022-08-02T01:07:21.209Z,99.99
2022-08-02T01:08:21.197Z,99.99
2022-08-02T01:09:22.191Z,99.99
2022-08-02T01:10:21.160Z,99.99
2022-08-02T01:11:21.161Z,99.99
2022-08-02T01:12:21.141Z,99.99
2022-08-02T01:13:21.141Z,99.99
2022-08-02T01:14:21.130Z,99.99
2022-08-02T01:15:21.127Z,99.99
2022-08-02T01:16:21.102Z,99.99
2022-08-02T01:17:21.102Z,99.99
2022-08-02T01:18:21.083Z,99.99
2022-08-02T01:19:21.082Z,99.99
2022-08-02T01:20:21.085Z,99.99
2022-08-02T01:21:21.053Z,99.99
2022-08-02T01:22:21.180Z,99.99
2022-08-02T01:23:21.025Z,99.99
2022-08-02T01:24:21.023Z,99.99
2022-08-02T01:25:21.025Z,99.99
2022-08-02T01:26:21.009Z,99.99
2022-08-02T01:27:21.338Z,99.99
2022-08-02T01:28:20.981Z,99.99
2022-08-02T01:29:20.957Z,99.99
2022-08-02T01:30:20.965Z,99.99
2022-08-02T01:31:20.950Z,99.99
2022-08-02T01:32:20.937Z,99.99
2022-08-02T01:33:20.921Z,99.99
2022-08-02T01:34:20.919Z,99.99
2022-08-02T01:35:20.897Z,99.99
2022-08-02T01:36:20.908Z,99.99
2022-08-02T01:37:20.878Z,99.99
2022-08-02T01:38:20.876Z,99.99
2022-08-02T01:39:26.377Z,99.99
2022-08-02T01:40:21.850Z,99.99
2022-08-02T01:41:20.838Z,99.99
2022-08-02T01:42:20.829Z,99.99
2022-08-02T01:43:21.081Z,99.99
2022-08-02T01:44:27.723Z,99.99
2022-08-02T01:45:21.790Z,99.99
2022-08-02T01:46:20.802Z,99.99
2022-08-02T01:47:20.773Z,99.99
2022-08-02T01:48:20.771Z,99.99
2022-08-02T01:49:20.806Z,99.99
2022-08-02T01:50:20.742Z,99.99
2022-08-02T01:51:20.724Z,99.99
2022-08-02T01:52:21.635Z,99.99
2022-08-02T01:53:20.704Z,99.99
2022-08-02T01:54:20.702Z,99.99
2022-08-02T01:55:20.683Z,99.99
2022-08-02T01:56:20.695Z,99.99
2022-08-02T01:57:20.666Z,99.99
2022-08-02T01:58:20.676Z,99.99
2022-08-02T01:59:20.647Z,99.99
2022-08-02T02:00:20.636Z,99.99
2022-08-02T02:01:20.685Z,99.99
2022-08-02T02:02:20.618Z,99.99
2022-08-02T02:03:20.627Z,99.99
2022-08-02T02:04:20.597Z,99.99
2022-08-02T02:05:20.606Z,99.99
2022-08-02T02:06:20.568Z,99.99
2022-08-02T02:07:20.577Z,99.99
2022-08-02T02:08:27.135Z,99.99
2022-08-02T02:09:21.539Z,99.99
2022-08-02T02:10:20.530Z,99.99
2022-08-02T02:12:10.200Z,99.99
2022-08-02T02:12:22.055Z,99.99
2022-08-02T02:13:20.501Z,99.99
2022-08-02T02:14:21.491Z,99.99
2022-08-02T02:15:20.471Z,99.99
2022-08-02T02:16:20.464Z,99.99
2022-08-02T02:17:53.089Z,99.99
2022-08-02T02:18:21.434Z,99.99
2022-08-02T02:19:21.372Z,99.99
2022-08-02T02:20:20.423Z,99.99
2022-08-02T02:21:20.414Z,99.99
2022-08-02T02:22:20.404Z,99.99
2022-08-02T02:23:22.571Z,99.99
2022-08-02T02:24:21.377Z,99.99
2022-08-02T02:25:32.268Z,99.99
2022-08-02T02:26:31.106Z,99.99
2022-08-02T02:27:21.347Z,99.99
2022-08-02T02:28:20.336Z,99.99
2022-08-02T02:29:20.334Z,99.99
2022-08-02T02:30:20.649Z,99.99
2022-08-02T02:31:20.299Z,99.99
2022-08-02T02:32:20.288Z,99.99
2022-08-02T02:33:20.278Z,99.99
2022-08-02T02:34:20.268Z,99.99
2022-08-02T02:35:20.268Z,99.99
2022-08-02T02:36:20.260Z,99.99
2022-08-02T02:37:20.238Z,99.99
2022-08-02T02:38:20.239Z,99.99
2022-08-02T02:39:20.226Z,99.99
2022-08-02T02:40:20.212Z,99.99
2022-08-02T02:41:20.194Z,99.99
2022-08-02T02:42:20.184Z,99.99
2022-08-02T02:43:20.175Z,99.99
2022-08-02T02:44:20.165Z,99.99
2022-08-02T02:45:20.161Z,99.99
2022-08-02T02:46:20.144Z,99.99
2022-08-02T02:47:20.140Z,99.99
2022-08-02T02:48:20.118Z,99.99
2022-08-02T02:49:20.142Z,99.99
2022-08-02T02:50:20.103Z,99.99
2022-08-02T02:51:20.084Z,99.99
2022-08-02T02:52:20.082Z,99.99
2022-08-02T02:53:20.078Z,99.99
2022-08-02T02:54:29.937Z,99.99
2022-08-02T02:55:21.043Z,99.99
2022-08-02T02:56:20.034Z,99.99
2022-08-02T02:57:20.018Z,99.99
2022-08-02T02:58:20.026Z,99.99
2022-08-02T02:59:21.005Z,99.99
2022-08-02T03:00:19.986Z,99.99
2022-08-02T03:01:20.044Z,99.99
2022-08-02T03:02:19.978Z,99.99
2022-08-02T03:03:21.350Z,99.99
2022-08-02T03:04:19.948Z,99.99
2022-08-02T03:05:19.928Z,99.99
2022-08-02T03:06:19.919Z,99.99
2022-08-02T03:07:19.913Z,99.99
2022-08-02T03:08:19.899Z,99.99
2022-08-02T03:09:19.991Z,99.99
2022-08-02T03:10:19.878Z,99.99
2022-08-02T03:11:19.886Z,99.99
2022-08-02T03:12:20.232Z,99.99
2022-08-02T03:13:19.841Z,99.99
2022-08-02T03:14:19.843Z,99.99
2022-08-02T03:15:19.828Z,99.99
2022-08-02T03:16:19.820Z,99.99
2022-08-02T03:17:19.800Z,99.99
2022-08-02T03:18:19.792Z,99.99
2022-08-02T03:19:19.783Z,99.99
2022-08-02T03:20:19.787Z,99.99
2022-08-02T03:21:19.765Z,99.99
2022-08-02T03:22:19.754Z,99.99
2022-08-02T03:23:19.740Z,99.99
2022-08-02T03:24:27.773Z,99.99
2022-08-02T03:25:20.715Z,99.99
2022-08-02T03:26:19.706Z,99.99
2022-08-02T03:27:19.705Z,99.99
2022-08-02T03:28:19.688Z,99.99
2022-08-02T03:29:19.676Z,99.99
2022-08-02T03:30:19.666Z,99.99
2022-08-02T03:31:19.650Z,99.99
2022-08-02T03:32:19.647Z,99.99
2022-08-02T03:33:19.638Z,99.99
2022-08-02T03:34:19.618Z,99.99
2022-08-02T03:35:23.822Z,99.99
2022-08-02T03:36:19.607Z,99.99
2022-08-02T03:37:19.593Z,99.99
2022-08-02T03:38:19.600Z,99.99
2022-08-02T03:39:19.562Z,99.99
2022-08-02T03:40:19.575Z,99.99
2022-08-02T03:41:19.549Z,99.99
2022-08-02T03:42:19.540Z,99.99
2022-08-02T03:43:19.540Z,99.99
2022-08-02T03:44:19.511Z,99.99
2022-08-02T03:45:19.498Z,99.99
2022-08-02T03:46:19.490Z,99.99
2022-08-02T03:47:19.473Z,99.99
2022-08-02T03:48:34.807Z,99.99
2022-08-02T03:49:20.511Z,99.99
2022-08-02T03:50:19.451Z,99.99
2022-08-02T03:51:19.437Z,99.99
2022-08-02T03:52:19.433Z,99.99
2022-08-02T03:53:20.076Z,99.99
2022-08-02T03:54:19.414Z,99.99
2022-08-02T03:55:19.384Z,99.99
2022-08-02T03:56:19.394Z,99.99
2022-08-02T03:57:19.365Z,99.99
2022-08-02T03:58:19.363Z,99.99
2022-08-02T03:59:19.355Z,99.99
2022-08-02T04:00:19.366Z,99.99
2022-08-02T04:01:19.393Z,99.99
2022-08-02T04:02:19.317Z,99.99
2022-08-02T04:03:19.842Z,99.99
2022-08-02T04:04:19.296Z,99.99
2022-08-02T04:05:19.384Z,99.99
2022-08-02T04:06:19.278Z,99.99
2022-08-02T04:08:02.642Z,99.99
2022-08-02T04:08:37.247Z,99.99
2022-08-02T04:09:20.238Z,99.99
2022-08-02T04:10:19.242Z,99.99
2022-08-02T04:11:19.229Z,99.99
2022-08-02T04:12:19.218Z,99.99
2022-08-02T04:13:19.199Z,99.99
2022-08-02T04:14:19.291Z,99.99
2022-08-02T04:15:19.189Z,99.99
2022-08-02T04:16:19.172Z,99.99
2022-08-02T04:17:19.151Z,99.99
2022-08-02T04:18:19.145Z,99.99
2022-08-02T04:19:19.764Z,99.99
2022-08-02T04:20:19.223Z,99.99
2022-08-02T04:21:19.112Z,99.99
2022-08-02T04:22:19.110Z,99.99
2022-08-02T04:23:19.113Z,99.99
2022-08-02T04:24:19.912Z,99.99
2022-08-02T04:25:19.063Z,99.99
2022-08-02T04:26:21.911Z,99.99
2022-08-02T04:27:51.278Z,99.99
2022-08-02T04:28:27.685Z,99.99
2022-08-02T04:29:20.027Z,99.99
2022-08-02T04:30:19.024Z,99.99
2022-08-02T04:31:18.998Z,99.99
2022-08-02T04:32:19.196Z,99.99
2022-08-02T04:33:18.978Z,99.99
2022-08-02T04:34:19.084Z,99.99
2022-08-02T04:35:20.142Z,99.99
2022-08-02T04:36:31.249Z,99.99
2022-08-02T04:37:19.971Z,99.99
2022-08-02T04:38:18.943Z,99.99
2022-08-02T04:39:18.909Z,99.99
2022-08-02T04:40:18.918Z,99.99
2022-08-02T04:41:18.891Z,99.99
2022-08-02T04:42:18.891Z,99.99
2022-08-02T04:43:18.879Z,99.99
2022-08-02T04:44:18.869Z,99.99
2022-08-02T04:45:18.852Z,99.99
2022-08-02T04:46:18.841Z,99.99
2022-08-02T04:47:34.460Z,99.99
2022-08-02T04:48:19.843Z,99.99
2022-08-02T04:49:18.878Z,99.99
2022-08-02T04:50:18.792Z,99.99
2022-08-02T04:51:18.782Z,99.99
2022-08-02T04:52:18.784Z,99.99
2022-08-02T04:53:18.765Z,99.99
2022-08-02T04:54:18.764Z,99.99
2022-08-02T04:55:18.745Z,99.99
2022-08-02T04:56:18.736Z,99.99
2022-08-02T04:57:18.735Z,99.99
2022-08-02T04:58:39.442Z,99.99
2022-08-02T04:59:19.706Z,99.99
2022-08-02T05:00:18.751Z,99.99
2022-08-02T05:01:18.769Z,99.99
2022-08-02T05:02:18.667Z,99.99
2022-08-02T05:03:18.657Z,99.99
2022-08-02T05:04:18.646Z,99.99
2022-08-02T05:05:18.637Z,99.99
2022-08-02T05:06:18.653Z,99.99
2022-08-02T05:07:18.639Z,99.99
2022-08-02T05:08:18.610Z,99.99
2022-08-02T05:09:18.598Z,99.99
2022-08-02T05:10:18.596Z,99.99
2022-08-02T05:11:18.669Z,99.99
2022-08-02T05:12:18.570Z,99.99
2022-08-02T05:13:18.552Z,99.99
2022-08-02T05:14:18.540Z,99.99
2022-08-02T05:15:18.683Z,99.99
2022-08-02T05:16:18.521Z,99.99
2022-08-02T05:17:18.511Z,99.99
2022-08-02T05:18:18.504Z,99.99
2022-08-02T05:19:18.585Z,99.99
2022-08-02T05:20:18.482Z,99.99
2022-08-02T05:21:18.463Z,99.99
2022-08-02T05:22:18.463Z,99.99
2022-08-02T05:23:18.442Z,99.99
2022-08-02T05:24:18.433Z,99.88
2022-08-02T05:25:18.433Z,99.84
2022-08-02T05:26:18.431Z,99.99
2022-08-02T05:27:21.496Z,99.43
2022-08-02T05:28:18.388Z,99.84
2022-08-02T05:29:18.375Z,99.22
2022-08-02T05:30:18.373Z,97.91
2022-08-02T05:31:18.566Z,98.07
2022-08-02T05:32:18.356Z,99.18
2022-08-02T05:33:18.336Z,98.47
2022-08-02T05:34:18.326Z,98.47
2022-08-02T05:35:18.308Z,99.18
2022-08-02T05:36:18.308Z,99.79
2022-08-02T05:37:18.376Z,99.99
2022-08-02T05:38:18.278Z,99.99
2022-08-02T05:39:19.749Z,99.68
2022-08-02T05:40:18.262Z,99.68
2022-08-02T05:41:19.454Z,99.99
2022-08-02T05:42:18.237Z,99.28
2022-08-02T05:43:18.238Z,97.77
2022-08-02T05:44:18.213Z,98.17
2022-08-02T05:45:18.210Z,99.04
2022-08-02T05:46:18.213Z,97.32
2022-08-02T05:47:18.181Z,98.93
2022-08-02T05:48:18.173Z,99.44
2022-08-02T05:49:18.225Z,98.93
2022-08-02T05:50:18.152Z,98.13
2022-08-02T05:51:18.146Z,99.04
2022-08-02T05:52:18.147Z,98.83
2022-08-02T05:53:18.132Z,99.13
2022-08-02T05:54:18.180Z,99.74
2022-08-02T05:55:18.104Z,99.74
2022-08-02T05:56:18.084Z,98.83
2022-08-02T05:57:18.085Z,97.82
2022-08-02T05:58:18.066Z,94.59
2022-08-02T05:59:18.059Z,96.56
2022-08-02T06:00:18.045Z,98.48
2022-08-02T06:01:18.091Z,98.88
2022-08-02T06:02:20.320Z,99.08
2022-08-02T06:03:18.026Z,96.26
2022-08-02T06:04:18.004Z,96.77
2022-08-02T06:05:17.995Z,96.87
2022-08-02T06:06:17.996Z,96.47
2022-08-02T06:07:17.979Z,97.07
2022-08-02T06:08:17.969Z,96.52
2022-08-02T06:09:23.111Z,95.21
2022-08-02T06:10:18.937Z,95.92
2022-08-02T06:11:17.930Z,96.12
2022-08-02T06:12:18.131Z,94.71
2022-08-02T06:13:18.021Z,95.81
2022-08-02T06:14:17.903Z,94.67
2022-08-02T06:15:17.993Z,95.47
2022-08-02T06:16:32.303Z,95.67
2022-08-02T06:17:18.871Z,95.87
2022-08-02T06:18:17.859Z,95.32
2022-08-02T06:19:18.850Z,95.83
2022-08-02T06:20:17.833Z,94.72
2022-08-02T06:22:31.754Z,94.92
2022-08-02T06:22:35.712Z,93.21
2022-08-02T06:23:18.823Z,92.00
2022-08-02T06:24:17.816Z,92.50
2022-08-02T06:25:50.044Z,93.61
2022-08-02T06:26:18.770Z,94.21
2022-08-02T06:27:17.755Z,94.12
2022-08-02T06:28:17.745Z,95.32
2022-08-02T06:29:17.737Z,94.72
2022-08-02T06:30:17.728Z,93.16
2022-08-02T06:31:17.725Z,94.17
2022-08-02T06:32:17.704Z,93.97
2022-08-02T06:33:17.694Z,95.68
2022-08-02T06:34:17.678Z,94.07
2022-08-02T06:35:17.679Z,92.56
2022-08-02T06:36:17.670Z,93.02
2022-08-02T06:37:17.660Z,91.01
2022-08-02T06:38:17.640Z,91.91
2022-08-02T06:39:17.629Z,92.32
2022-08-02T06:40:17.620Z,92.72
2022-08-02T06:41:17.610Z,93.82
2022-08-02T06:42:17.591Z,94.33
2022-08-02T06:43:18.602Z,89.40
2022-08-02T06:44:45.864Z,88.29
2022-08-02T06:45:18.570Z,90.50
2022-08-02T06:46:37.572Z,92.37
2022-08-02T06:47:18.553Z,89.06
2022-08-02T06:48:17.532Z,89.06
2022-08-02T06:49:17.621Z,91.27
2022-08-02T06:50:17.513Z,92.17
2022-08-02T06:51:17.523Z,92.17
2022-08-02T06:52:19.126Z,89.96
2022-08-02T06:53:17.495Z,91.27
2022-08-02T06:54:17.476Z,90.06
2022-08-02T06:55:17.470Z,89.15
2022-08-02T06:56:17.445Z,91.67
2022-08-02T06:57:17.436Z,90.46
2022-08-02T06:58:17.419Z,91.02
2022-08-02T06:59:17.427Z,91.42
2022-08-02T07:00:17.406Z,92.03
2022-08-02T07:01:17.467Z,89.51
2022-08-02T07:02:17.376Z,88.57
2022-08-02T07:03:17.396Z,88.77
2022-08-02T07:04:19.955Z,89.27
2022-08-02T07:05:17.368Z,86.26
2022-08-02T07:06:17.340Z,88.02
2022-08-02T07:07:17.337Z,88.53
2022-08-02T07:08:17.319Z,85.72
2022-08-02T07:09:21.008Z,87.08
2022-08-02T07:10:17.289Z,87.58
2022-08-02T07:11:17.302Z,86.38
2022-08-02T07:12:17.271Z,85.08
2022-08-02T07:13:17.283Z,86.18
2022-08-02T07:14:17.258Z,87.58
2022-08-02T07:15:17.256Z,85.97
2022-08-02T07:16:17.242Z,84.77
2022-08-02T07:17:17.231Z,84.27
2022-08-02T07:18:17.223Z,84.77
2022-08-02T07:19:17.203Z,84.97
2022-08-02T07:20:17.306Z,83.57
2022-08-02T07:21:17.184Z,83.17
2022-08-02T07:22:18.175Z,82.46
2022-08-02T07:23:17.158Z,84.57
2022-08-02T07:24:17.955Z,83.97
2022-08-02T07:25:17.136Z,83.57
2022-08-02T07:26:17.138Z,84.97
2022-08-02T07:27:17.218Z,86.64
2022-08-02T07:28:24.073Z,88.64
2022-08-02T07:29:18.087Z,85.53
2022-08-02T07:30:17.069Z,85.13
2022-08-02T07:31:17.066Z,84.59
2022-08-02T07:32:17.054Z,87.80
2022-08-02T07:33:37.645Z,83.49
2022-08-02T07:34:18.030Z,84.59
2022-08-02T07:35:19.216Z,85.35
2022-08-02T07:36:22.859Z,86.16
2022-08-02T07:37:23.543Z,82.05
2022-08-02T07:38:17.981Z,81.74
2022-08-02T07:39:16.981Z,82.15
2022-08-02T07:40:19.532Z,83.55
2022-08-02T07:41:16.971Z,86.16
2022-08-02T07:42:16.941Z,82.75
2022-08-02T07:43:16.939Z,80.74
2022-08-02T07:44:16.913Z,81.15
2022-08-02T07:45:16.948Z,81.61
2022-08-02T07:46:17.714Z,83.81
2022-08-02T07:47:16.896Z,82.61
2022-08-02T07:48:16.878Z,82.01
2022-08-02T07:49:16.919Z,84.11
2022-08-02T07:50:16.857Z,85.41
2022-08-02T07:51:17.425Z,80.00
2022-08-02T07:52:16.859Z,80.17
2022-08-02T07:53:16.835Z,79.36
2022-08-02T07:54:16.997Z,78.27
2022-08-02T07:55:16.807Z,79.67
2022-08-02T07:56:16.787Z,79.43
2022-08-02T07:57:16.788Z,79.83
2022-08-02T07:58:16.768Z,78.53
2022-08-02T07:59:16.765Z,79.69
2022-08-02T08:00:16.749Z,78.39
2022-08-02T08:01:16.827Z,77.09
2022-08-02T08:02:16.731Z,78.39
2022-08-02T08:03:16.743Z,79.39
2022-08-02T08:04:16.707Z,79.99
2022-08-02T08:05:16.700Z,80.95
2022-08-02T08:06:16.683Z,79.96
2022-08-02T08:07:16.672Z,80.82
2022-08-02T08:08:17.681Z,78.42
2022-08-02T08:09:16.673Z,76.98
2022-08-02T08:10:16.633Z,75.85
2022-08-02T08:11:16.634Z,73.35
2022-08-02T08:12:16.818Z,74.05
2022-08-02T08:13:17.427Z,74.32
2022-08-02T08:14:17.068Z,75.11
2022-08-02T08:15:16.603Z,73.08
2022-08-02T08:16:16.585Z,73.88
2022-08-02T08:17:16.568Z,76.77
2022-08-02T08:18:16.554Z,76.34
2022-08-02T08:19:16.553Z,75.44
2022-08-02T08:20:16.542Z,74.01
2022-08-02T08:21:16.641Z,73.21
2022-08-02T08:22:16.518Z,73.51
2022-08-02T08:23:16.507Z,72.41
2022-08-02T08:24:16.847Z,74.11
2022-08-02T08:25:16.488Z,72.91
2022-08-02T08:26:16.469Z,73.57
2022-08-02T08:27:16.493Z,73.08
2022-08-02T08:28:16.460Z,71.55
2022-08-02T08:29:16.460Z,70.06
2022-08-02T08:30:16.423Z,70.06
2022-08-02T08:31:16.420Z,70.36
2022-08-02T08:32:18.479Z,72.01
2022-08-02T08:33:16.409Z,70.92
2022-08-02T08:34:16.380Z,72.31
2022-08-02T08:35:16.382Z,72.67
2022-08-02T08:36:16.363Z,70.29
2022-08-02T08:37:17.968Z,71.75
2022-08-02T08:38:16.342Z,71.84
2022-08-02T08:39:16.335Z,71.05
2022-08-02T08:40:19.437Z,70.25
2022-08-02T08:41:16.319Z,70.52
2022-08-02T08:42:16.295Z,70.32
2022-08-02T08:43:16.297Z,67.24
2022-08-02T08:44:16.274Z,67.34
2022-08-02T08:45:16.267Z,68.99
2022-08-02T08:46:16.257Z,69.20
2022-08-02T08:47:16.259Z,68.07
2022-08-02T08:48:30.376Z,67.47
2022-08-02T08:49:17.337Z,69.06
2022-08-02T08:50:20.266Z,68.17
2022-08-02T08:51:17.210Z,66.08
2022-08-02T08:52:16.190Z,65.78
2022-08-02T08:53:16.190Z,66.71
2022-08-02T08:54:16.172Z,66.71
2022-08-02T08:55:16.166Z,68.70
2022-08-02T08:56:16.758Z,66.55
2022-08-02T08:57:16.197Z,67.44
2022-08-02T08:58:16.123Z,67.01
2022-08-02T08:59:16.132Z,68.04
2022-08-02T09:00:16.103Z,67.31
2022-08-02T09:01:16.137Z,67.80
2022-08-02T09:02:20.479Z,67.41
2022-08-02T09:03:17.074Z,66.71
2022-08-02T09:04:16.055Z,67.80
2022-08-02T09:05:16.067Z,68.80
2022-08-02T09:06:16.045Z,66.81
2022-08-02T09:07:16.035Z,67.50
2022-08-02T09:08:17.171Z,67.01
2022-08-02T09:09:16.015Z,66.02
2022-08-02T09:10:15.998Z,67.97
2022-08-02T09:11:15.998Z,67.97
2022-08-02T09:12:15.986Z,65.19
2022-08-02T09:13:38.081Z,65.26
2022-08-02T09:14:16.950Z,66.58
2022-08-02T09:15:16.248Z,66.58
2022-08-02T09:16:15.941Z,67.38
2022-08-02T09:17:16.730Z,67.71
2022-08-02T09:18:15.920Z,67.90
2022-08-02T09:19:15.931Z,68.30
2022-08-02T09:20:15.901Z,68.23
2022-08-02T09:21:16.166Z,68.63
2022-08-02T09:22:16.496Z,68.04
2022-08-02T09:23:15.863Z,68.83
2022-08-02T09:24:15.873Z,67.97
2022-08-02T09:25:15.855Z,68.43
2022-08-02T09:26:15.838Z,69.62
2022-08-02T09:27:15.823Z,69.23
2022-08-02T09:28:15.805Z,67.94
2022-08-02T09:29:15.806Z,68.13
2022-08-02T09:30:15.806Z,69.56
2022-08-02T09:31:15.787Z,69.46
2022-08-02T09:32:15.779Z,68.96
2022-08-02T09:33:15.757Z,68.63
2022-08-02T09:34:15.745Z,69.53
2022-08-02T09:35:15.738Z,69.49
2022-08-02T09:36:15.728Z,68.46
2022-08-02T09:37:15.738Z,66.68
2022-08-02T09:38:15.708Z,67.14
2022-08-02T09:39:15.705Z,64.96
2022-08-02T09:40:15.743Z,65.56
2022-08-02T09:41:15.682Z,66.05
2022-08-02T09:42:16.076Z,66.75
2022-08-02T09:43:15.661Z,65.62
2022-08-02T09:44:16.311Z,67.90
2022-08-02T09:45:15.642Z,66.22
2022-08-02T09:46:15.624Z,66.61
2022-08-02T09:47:15.624Z,64.53
2022-08-02T09:48:15.603Z,66.22
2022-08-02T09:49:15.625Z,64.43
2022-08-02T09:50:15.583Z,65.03
2022-08-02T09:51:15.576Z,66.22
2022-08-02T09:52:15.563Z,65.92
2022-08-02T09:53:15.575Z,66.22
2022-08-02T09:54:15.553Z,66.49
2022-08-02T09:55:15.527Z,65.49
2022-08-02T09:56:35.050Z,65.59
2022-08-02T09:57:16.513Z,65.30
2022-08-02T09:58:15.507Z,64.70
2022-08-02T09:59:15.495Z,64.80
2022-08-02T10:00:20.417Z,66.28
2022-08-02T10:01:16.509Z,65.69
2022-08-02T10:02:17.819Z,64.47
2022-08-02T10:03:22.337Z,66.46
2022-08-02T10:04:21.814Z,64.87
2022-08-02T10:05:16.431Z,63.98
2022-08-02T10:06:15.419Z,63.48
2022-08-02T10:07:15.401Z,63.58
2022-08-02T10:08:15.394Z,62.79
2022-08-02T10:09:15.382Z,64.37
2022-08-02T10:10:15.375Z,61.90
2022-08-02T10:11:15.364Z,63.15
2022-08-02T10:12:15.632Z,65.23
2022-08-02T10:13:15.336Z,61.07
2022-08-02T10:14:16.334Z,62.36
2022-08-02T10:15:15.327Z,62.66
2022-08-02T10:16:15.314Z,63.95
2022-08-02T10:17:15.310Z,61.77
2022-08-02T10:18:36.935Z,66.72
2022-08-02T10:19:16.280Z,65.00
2022-08-02T10:20:15.277Z,61.54
2022-08-02T10:21:15.270Z,60.85
2022-08-02T10:22:15.739Z,60.97
2022-08-02T10:23:15.238Z,61.87
2022-08-02T10:24:15.239Z,63.12
2022-08-02T10:25:15.212Z,62.43
2022-08-02T10:26:15.210Z,63.82
2022-08-02T10:27:15.290Z,61.34
2022-08-02T10:28:16.648Z,62.50
2022-08-02T10:29:15.493Z,63.29
2022-08-02T10:30:15.169Z,60.99
2022-08-02T10:31:15.149Z,61.35
2022-08-02T10:32:15.464Z,61.16
2022-08-02T10:33:15.139Z,61.52
2022-08-02T10:34:15.122Z,60.24
2022-08-02T10:35:19.847Z,61.10
2022-08-02T10:36:16.101Z,59.52
2022-08-02T10:37:15.163Z,60.01
2022-08-02T10:38:15.089Z,60.01
2022-08-02T10:39:15.172Z,59.22
2022-08-02T10:40:15.064Z,59.81
2022-08-02T10:41:15.035Z,60.01
2022-08-02T10:42:15.181Z,61.00
2022-08-02T10:43:15.017Z,58.80
2022-08-02T10:44:24.273Z,59.71
2022-08-02T10:45:16.009Z,58.40
2022-08-02T10:46:15.018Z,58.73
2022-08-02T10:47:15.434Z,59.64
2022-08-02T10:48:14.975Z,58.00
2022-08-02T10:50:15.981Z,61.42
2022-08-02T10:51:14.931Z,59.64
2022-08-02T10:52:15.408Z,58.16
2022-08-02T10:53:14.919Z,59.25
2022-08-02T10:54:14.920Z,58.86
2022-08-02T10:55:22.523Z,59.67
2022-08-02T10:56:15.901Z,61.42
2022-08-02T10:57:15.430Z,59.55
2022-08-02T10:58:14.862Z,59.05
2022-08-02T10:59:14.862Z,58.75
2022-08-02T11:00:17.235Z,59.84
2022-08-02T11:01:14.942Z,58.16
2022-08-02T11:02:15.084Z,58.59
2022-08-02T11:03:14.805Z,60.07
2022-08-02T11:04:14.816Z,58.95
2022-08-02T11:05:14.792Z,60.73
2022-08-02T11:06:25.295Z,60.04
2022-08-02T11:07:15.768Z,61.00
2022-08-02T11:08:14.765Z,61.39
2022-08-02T11:09:14.747Z,57.64
2022-08-02T11:10:14.857Z,59.02
2022-08-02T11:11:14.719Z,59.32
2022-08-02T11:12:15.133Z,57.45
2022-08-02T11:13:14.711Z,59.32
2022-08-02T11:14:14.797Z,58.43
2022-08-02T11:15:14.682Z,57.54
2022-08-02T11:16:14.685Z,59.12
2022-08-02T11:17:14.663Z,59.22
2022-08-02T11:18:14.782Z,57.64
2022-08-02T11:19:14.640Z,59.91
2022-08-02T11:20:14.640Z,57.74
2022-08-02T11:21:14.612Z,56.85
2022-08-02T11:22:15.634Z,57.24
2022-08-02T11:23:14.598Z,58.30
2022-08-02T11:24:14.593Z,59.06
2022-08-02T11:25:14.577Z,59.23
2022-08-02T11:26:14.576Z,57.06
2022-08-02T11:27:14.561Z,59.50
2022-08-02T11:28:14.546Z,59.11
2022-08-02T11:29:15.641Z,56.84
2022-08-02T11:30:14.525Z,57.73
2022-08-02T11:31:14.507Z,57.70
2022-08-02T11:32:15.002Z,54.68
2022-08-02T11:33:14.497Z,55.36
2022-08-02T11:34:36.792Z,58.00
2022-08-02T11:35:15.476Z,55.33
2022-08-02T11:36:14.471Z,57.67
2022-08-02T11:37:14.449Z,53.74
2022-08-02T11:38:14.450Z,53.74
2022-08-02T11:39:15.754Z,55.11
2022-08-02T11:40:19.743Z,56.16
2022-08-02T11:41:15.411Z,57.25
2022-08-02T11:42:15.693Z,55.77
2022-08-02T11:43:14.382Z,53.78
2022-08-02T11:44:14.385Z,56.53
2022-08-02T11:45:20.983Z,53.88
2022-08-02T11:46:15.407Z,54.37
2022-08-02T11:47:14.344Z,53.31
2022-08-02T11:48:14.344Z,54.49
2022-08-02T11:49:14.384Z,52.33
2022-08-02T11:50:14.323Z,52.23
2022-08-02T11:51:14.316Z,53.24
2022-08-02T11:52:14.624Z,53.74
2022-08-02T11:53:14.287Z,53.74
2022-08-02T11:54:14.279Z,55.01
2022-08-02T11:55:14.297Z,54.10
2022-08-02T11:56:14.268Z,54.79
2022-08-02T11:57:19.216Z,53.70
2022-08-02T11:58:14.237Z,52.72
2022-08-02T11:59:14.632Z,53.24
2022-08-02T12:00:14.219Z,51.86
2022-08-02T12:01:14.213Z,54.82
2022-08-02T12:02:14.785Z,55.90
2022-08-02T12:03:17.888Z,54.49
2022-08-02T12:04:15.182Z,54.20
2022-08-02T12:05:14.178Z,52.53
2022-08-02T12:06:16.656Z,52.80
2022-08-02T12:07:14.882Z,53.29
2022-08-02T12:08:14.155Z,51.52
2022-08-02T12:09:19.021Z,52.60
2022-08-02T12:10:18.257Z,52.11
2022-08-02T12:11:14.136Z,52.60
2022-08-02T12:12:14.371Z,52.01
2022-08-02T12:13:14.076Z,49.95
2022-08-02T12:14:14.076Z,51.22
2022-08-02T12:15:14.060Z,50.04
2022-08-02T12:16:14.058Z,50.73
2022-08-02T12:17:14.141Z,49.97
2022-08-02T12:18:14.036Z,53.70
2022-08-02T12:19:14.409Z,52.33
2022-08-02T12:20:14.019Z,51.05
2022-08-02T12:21:14.220Z,53.22
2022-08-02T12:22:14.400Z,51.15
2022-08-02T12:23:13.998Z,52.03
2022-08-02T12:24:13.971Z,50.54
2022-08-02T12:25:14.607Z,52.08
2022-08-02T12:26:16.227Z,50.12
2022-08-02T12:27:13.940Z,50.59
2022-08-02T12:28:17.390Z,50.68
2022-08-02T12:29:13.922Z,48.91
2022-08-02T12:30:13.910Z,50.39
2022-08-02T12:31:13.895Z,49.99
2022-08-02T12:32:14.453Z,48.55
2022-08-02T12:33:13.873Z,49.73
2022-08-02T12:34:13.876Z,51.57
2022-08-02T12:35:13.863Z,51.37
2022-08-02T12:36:13.850Z,51.57
2022-08-02T12:37:13.830Z,52.15
2022-08-02T12:38:13.817Z,52.62
2022-08-02T12:39:13.817Z,51.25
2022-08-02T12:40:13.810Z,49.26
2022-08-02T12:41:31.824Z,46.02
2022-08-02T12:42:15.458Z,46.22
2022-08-02T12:43:13.769Z,44.26
2022-08-02T12:44:13.760Z,47.32
2022-08-02T12:45:14.758Z,49.87
2022-08-02T12:46:13.741Z,47.89
2022-08-02T12:47:13.722Z,48.47
2022-08-02T12:48:13.734Z,47.39
2022-08-02T12:49:18.380Z,48.47
2022-08-02T12:50:13.703Z,49.36
2022-08-02T12:51:13.694Z,47.59
2022-08-02T12:52:13.955Z,46.51
2022-08-02T12:53:14.496Z,46.36